sensor_id;sensor_type;location;lat;lon;timestamp;temperature;humidity
11107;DHT22;5607;48.302;14.294;2023-04-01T00:02:13;10.60;1.00
11107;DHT22;5607;48.302;14.294;2023-04-01T00:05:00;10.70;1.00
11107;DHT22;5607;48.302;14.294;2023-04-01T00:07:47;10.60;1.00
11107;DHT22;5607;48.302;14.294;2023-04-01T00:10:34;10.60;1.00
11107;DHT22;5607;48.302;14.294;2023-04-01T00:13:21;10.60;1.00
11107;DHT22;5607;48.302;14.294;2023-04-01T00:16:07;10.70;1.00
11107;DHT22;5607;48.302;14.294;2023-04-01T00:18:54;10.70;1.00
11107;DHT22;5607;48.302;14.294;2023-04-01T00:21:41;10.70;1.00
11107;DHT22;5607;48.302;14.294;2023-04-01T00:24:28;10.70;1.00
11107;DHT22;5607;48.302;14.294;2023-04-01T00:27:15;10.70;1.00
11107;DHT22;5607;48.302;14.294;2023-04-01T00:30:02;10.80;1.00
11107;DHT22;5607;48.302;14.294;2023-04-01T00:32:52;10.80;1.00
11107;DHT22;5607;48.302;14.294;2023-04-01T00:35:39;10.80;1.00
11107;DHT22;5607;48.302;14.294;2023-04-01T00:38:26;10.80;1.00
11107;DHT22;5607;48.302;14.294;2023-04-01T00:41:14;10.70;1.00
11107;DHT22;5607;48.302;14.294;2023-04-01T00:44:19;10.70;1.00
11107;DHT22;5607;48.302;14.294;2023-04-01T00:47:08;10.60;1.00
11107;DHT22;5607;48.302;14.294;2023-04-01T00:49:55;10.60;1.00
11107;DHT22;5607;48.302;14.294;2023-04-01T00:52:41;10.60;1.00
11107;DHT22;5607;48.302;14.294;2023-04-01T00:55:29;10.70;1.00
11107;DHT22;5607;48.302;14.294;2023-04-01T00:58:19;10.60;1.00
11107;DHT22;5607;48.302;14.294;2023-04-01T01:01:11;10.70;1.00
11107;DHT22;5607;48.302;14.294;2023-04-01T01:03:57;10.70;1.00
11107;DHT22;5607;48.302;14.294;2023-04-01T01:10:02;10.70;1.00
11107;DHT22;5607;48.302;14.294;2023-04-01T01:16:04;10.50;1.00
11107;DHT22;5607;48.302;14.294;2023-04-01T01:38:04;10.00;1.00
11107;DHT22;5607;48.302;14.294;2023-04-01T01:40:54;10.10;1.00
11107;DHT22;5607;48.302;14.294;2023-04-01T01:43:44;10.00;1.00
11107;DHT22;5607;48.302;14.294;2023-04-01T01:46:34;10.00;1.00
11107;DHT22;5607;48.302;14.294;2023-04-01T01:49:24;10.10;1.00
11107;DHT22;5607;48.302;14.294;2023-04-01T01:52:12;10.20;1.00
11107;DHT22;5607;48.302;14.294;2023-04-01T01:54:59;10.20;1.00
11107;DHT22;5607;48.302;14.294;2023-04-01T01:57:45;10.20;1.00
11107;DHT22;5607;48.302;14.294;2023-04-01T02:00:33;10.30;5.10
11107;DHT22;5607;48.302;14.294;2023-04-01T02:03:21;10.20;1.50
11107;DHT22;5607;48.302;14.294;2023-04-01T02:06:15;10.20;1.00
11107;DHT22;5607;48.302;14.294;2023-04-01T02:09:08;10.10;1.00
11107;DHT22;5607;48.302;14.294;2023-04-01T02:12:04;10.20;1.00
11107;DHT22;5607;48.302;14.294;2023-04-01T02:14:54;10.10;1.00
11107;DHT22;5607;48.302;14.294;2023-04-01T02:17:46;10.20;1.00
11107;DHT22;5607;48.302;14.294;2023-04-01T02:20:35;10.20;1.00
11107;DHT22;5607;48.302;14.294;2023-04-01T02:23:24;10.10;1.00
11107;DHT22;5607;48.302;14.294;2023-04-01T02:26:12;10.10;1.00
11107;DHT22;5607;48.302;14.294;2023-04-01T02:29:01;10.10;1.00
11107;DHT22;5607;48.302;14.294;2023-04-01T02:31:49;10.00;1.00
11107;DHT22;5607;48.302;14.294;2023-04-01T02:34:37;10.00;1.00
11107;DHT22;5607;48.302;14.294;2023-04-01T02:37:24;10.10;1.00
11107;DHT22;5607;48.302;14.294;2023-04-01T02:40:12;10.10;1.00
11107;DHT22;5607;48.302;14.294;2023-04-01T02:42:59;10.10;1.00
11107;DHT22;5607;48.302;14.294;2023-04-01T02:45:46;10.10;1.00
11107;DHT22;5607;48.302;14.294;2023-04-01T02:48:32;10.00;1.00
11107;DHT22;5607;48.302;14.294;2023-04-01T02:51:19;9.90;1.00
11107;DHT22;5607;48.302;14.294;2023-04-01T02:54:05;9.90;1.00
11107;DHT22;5607;48.302;14.294;2023-04-01T02:56:52;10.00;1.00
11107;DHT22;5607;48.302;14.294;2023-04-01T02:59:39;9.90;1.00
11107;DHT22;5607;48.302;14.294;2023-04-01T03:02:25;9.80;1.00
11107;DHT22;5607;48.302;14.294;2023-04-01T03:05:12;9.80;1.00
11107;DHT22;5607;48.302;14.294;2023-04-01T03:08:01;9.80;1.00
11107;DHT22;5607;48.302;14.294;2023-04-01T03:10:48;9.80;1.00
11107;DHT22;5607;48.302;14.294;2023-04-01T03:13:35;9.80;1.00
11107;DHT22;5607;48.302;14.294;2023-04-01T03:16:22;9.90;1.00
11107;DHT22;5607;48.302;14.294;2023-04-01T03:19:09;9.90;1.00
11107;DHT22;5607;48.302;14.294;2023-04-01T03:21:55;9.80;1.00
11107;DHT22;5607;48.302;14.294;2023-04-01T03:24:42;9.90;1.00
11107;DHT22;5607;48.302;14.294;2023-04-01T03:27:28;9.90;1.00
11107;DHT22;5607;48.302;14.294;2023-04-01T03:30:15;9.90;1.00
11107;DHT22;5607;48.302;14.294;2023-04-01T03:33:02;9.90;1.00
11107;DHT22;5607;48.302;14.294;2023-04-01T03:35:48;9.80;1.00
11107;DHT22;5607;48.302;14.294;2023-04-01T03:38:38;9.80;1.00
11107;DHT22;5607;48.302;14.294;2023-04-01T03:41:26;9.80;1.00
11107;DHT22;5607;48.302;14.294;2023-04-01T03:44:13;9.80;1.00
11107;DHT22;5607;48.302;14.294;2023-04-01T03:47:00;9.90;1.00
11107;DHT22;5607;48.302;14.294;2023-04-01T03:49:47;9.90;1.00
11107;DHT22;5607;48.302;14.294;2023-04-01T03:52:33;9.90;1.00
11107;DHT22;5607;48.302;14.294;2023-04-01T03:55:20;10.00;1.00
11107;DHT22;5607;48.302;14.294;2023-04-01T03:58:07;9.90;1.00
11107;DHT22;5607;48.302;14.294;2023-04-01T04:00:54;9.90;1.00
11107;DHT22;5607;48.302;14.294;2023-04-01T04:03:41;9.90;1.00
11107;DHT22;5607;48.302;14.294;2023-04-01T04:06:27;9.90;1.00
11107;DHT22;5607;48.302;14.294;2023-04-01T04:09:14;9.90;1.00
11107;DHT22;5607;48.302;14.294;2023-04-01T04:12:01;9.90;1.00
11107;DHT22;5607;48.302;14.294;2023-04-01T04:14:47;9.90;1.00
11107;DHT22;5607;48.302;14.294;2023-04-01T04:17:34;9.90;1.00
11107;DHT22;5607;48.302;14.294;2023-04-01T04:20:21;9.90;1.00
11107;DHT22;5607;48.302;14.294;2023-04-01T04:23:07;9.80;1.00
11107;DHT22;5607;48.302;14.294;2023-04-01T04:25:58;9.80;1.00
11107;DHT22;5607;48.302;14.294;2023-04-01T04:28:46;9.70;1.00
11107;DHT22;5607;48.302;14.294;2023-04-01T04:31:34;9.80;1.00
11107;DHT22;5607;48.302;14.294;2023-04-01T04:34:21;9.80;1.00
11107;DHT22;5607;48.302;14.294;2023-04-01T04:37:08;9.80;1.00
11107;DHT22;5607;48.302;14.294;2023-04-01T04:39:55;9.70;1.00
11107;DHT22;5607;48.302;14.294;2023-04-01T04:42:41;9.70;4.10
11107;DHT22;5607;48.302;14.294;2023-04-01T04:45:28;9.70;7.30
11107;DHT22;5607;48.302;14.294;2023-04-01T04:48:15;9.70;4.20
11107;DHT22;5607;48.302;14.294;2023-04-01T04:51:04;9.70;1.00
11107;DHT22;5607;48.302;14.294;2023-04-01T04:53:51;9.70;6.10
11107;DHT22;5607;48.302;14.294;2023-04-01T04:56:37;9.80;13.70
11107;DHT22;5607;48.302;14.294;2023-04-01T04:59:24;9.90;10.70
11107;DHT22;5607;48.302;14.294;2023-04-01T05:02:11;9.80;1.00
11107;DHT22;5607;48.302;14.294;2023-04-01T05:04:58;9.90;1.00
11107;DHT22;5607;48.302;14.294;2023-04-01T05:07:45;10.00;1.00
11107;DHT22;5607;48.302;14.294;2023-04-01T05:10:31;10.00;1.00
11107;DHT22;5607;48.302;14.294;2023-04-01T05:13:19;10.00;1.00
11107;DHT22;5607;48.302;14.294;2023-04-01T05:16:09;10.10;1.00
11107;DHT22;5607;48.302;14.294;2023-04-01T05:19:01;10.10;1.00
11107;DHT22;5607;48.302;14.294;2023-04-01T05:21:47;10.20;1.00
11107;DHT22;5607;48.302;14.294;2023-04-01T05:24:34;10.30;1.00
11107;DHT22;5607;48.302;14.294;2023-04-01T05:27:21;10.40;1.00
11107;DHT22;5607;48.302;14.294;2023-04-01T05:30:07;10.30;1.00
11107;DHT22;5607;48.302;14.294;2023-04-01T05:32:55;10.40;1.00
11107;DHT22;5607;48.302;14.294;2023-04-01T05:35:41;10.40;1.00
11107;DHT22;5607;48.302;14.294;2023-04-01T05:38:28;10.50;1.00
11107;DHT22;5607;48.302;14.294;2023-04-01T05:41:14;10.60;1.00
11107;DHT22;5607;48.302;14.294;2023-04-01T05:44:02;10.60;1.00
11107;DHT22;5607;48.302;14.294;2023-04-01T05:46:48;10.70;1.00
11107;DHT22;5607;48.302;14.294;2023-04-01T05:49:35;10.60;1.00
11107;DHT22;5607;48.302;14.294;2023-04-01T05:52:24;10.60;1.00
11107;DHT22;5607;48.302;14.294;2023-04-01T05:55:11;10.70;1.00
11107;DHT22;5607;48.302;14.294;2023-04-01T05:57:58;10.70;1.00
11107;DHT22;5607;48.302;14.294;2023-04-01T06:00:44;10.80;1.00
11107;DHT22;5607;48.302;14.294;2023-04-01T06:03:31;10.60;1.00
11107;DHT22;5607;48.302;14.294;2023-04-01T06:06:25;10.40;1.00
11107;DHT22;5607;48.302;14.294;2023-04-01T06:09:34;10.30;1.00
11107;DHT22;5607;48.302;14.294;2023-04-01T06:12:32;10.30;1.00
11107;DHT22;5607;48.302;14.294;2023-04-01T06:24:16;10.20;1.00
11107;DHT22;5607;48.302;14.294;2023-04-01T06:33:02;10.40;1.00
11107;DHT22;5607;48.302;14.294;2023-04-01T06:42:26;10.80;1.00
11107;DHT22;5607;48.302;14.294;2023-04-01T06:45:28;10.80;1.00
11107;DHT22;5607;48.302;14.294;2023-04-01T06:48:38;10.90;1.00
11107;DHT22;5607;48.302;14.294;2023-04-01T06:52:19;10.90;1.00
11107;DHT22;5607;48.302;14.294;2023-04-01T06:55:02;11.20;1.00
11107;DHT22;5607;48.302;14.294;2023-04-01T06:58:18;11.20;1.00
11107;DHT22;5607;48.302;14.294;2023-04-01T07:01:12;11.20;1.00
11107;DHT22;5607;48.302;14.294;2023-04-01T07:04:06;11.50;1.00
11107;DHT22;5607;48.302;14.294;2023-04-01T07:07:03;11.70;1.00
11107;DHT22;5607;48.302;14.294;2023-04-01T07:09:56;12.00;1.00
11107;DHT22;5607;48.302;14.294;2023-04-01T07:12:49;12.20;1.00
11107;DHT22;5607;48.302;14.294;2023-04-01T07:15:41;11.90;1.00
11107;DHT22;5607;48.302;14.294;2023-04-01T07:18:42;11.80;1.00
11107;DHT22;5607;48.302;14.294;2023-04-01T07:21:36;11.90;1.00
11107;DHT22;5607;48.302;14.294;2023-04-01T07:24:26;12.20;1.00
11107;DHT22;5607;48.302;14.294;2023-04-01T07:27:16;12.20;1.00
11107;DHT22;5607;48.302;14.294;2023-04-01T07:30:06;12.40;1.00
11107;DHT22;5607;48.302;14.294;2023-04-01T07:36:10;12.40;1.00
11107;DHT22;5607;48.302;14.294;2023-04-01T07:42:09;12.40;1.00
11107;DHT22;5607;48.302;14.294;2023-04-01T07:48:30;12.00;1.00
11107;DHT22;5607;48.302;14.294;2023-04-01T07:51:29;12.00;1.00
11107;DHT22;5607;48.302;14.294;2023-04-01T07:57:34;12.00;1.00
11107;DHT22;5607;48.302;14.294;2023-04-01T08:00:27;11.80;1.00
11107;DHT22;5607;48.302;14.294;2023-04-01T08:06:49;11.90;1.00
11107;DHT22;5607;48.302;14.294;2023-04-01T08:22:42;11.90;1.00
11107;DHT22;5607;48.302;14.294;2023-04-01T08:25:31;12.10;99.90
11107;DHT22;5607;48.302;14.294;2023-04-01T08:28:41;12.20;99.90
11107;DHT22;5607;48.302;14.294;2023-04-01T08:34:25;12.60;99.90
11107;DHT22;5607;48.302;14.294;2023-04-01T08:37:22;12.90;99.90
11107;DHT22;5607;48.302;14.294;2023-04-01T08:50:06;13.50;99.90
11107;DHT22;5607;48.302;14.294;2023-04-01T08:54:01;12.90;99.90
11107;DHT22;5607;48.302;14.294;2023-04-01T08:56:55;12.90;99.90
11107;DHT22;5607;48.302;14.294;2023-04-01T08:59:56;13.10;99.90
11107;DHT22;5607;48.302;14.294;2023-04-01T09:09:30;13.00;99.90
11107;DHT22;5607;48.302;14.294;2023-04-01T09:12:36;13.10;99.90
11107;DHT22;5607;48.302;14.294;2023-04-01T09:15:37;13.30;99.90
11107;DHT22;5607;48.302;14.294;2023-04-01T09:22:05;13.20;99.90
11107;DHT22;5607;48.302;14.294;2023-04-01T09:25:16;13.50;99.90
11107;DHT22;5607;48.302;14.294;2023-04-01T09:37:59;13.20;99.90
11107;DHT22;5607;48.302;14.294;2023-04-01T09:41:21;13.10;99.90
11107;DHT22;5607;48.302;14.294;2023-04-01T10:09:09;13.30;99.90
11107;DHT22;5607;48.302;14.294;2023-04-01T10:49:47;13.70;99.90
11107;DHT22;5607;48.302;14.294;2023-04-01T10:58:57;14.50;99.90
11107;DHT22;5607;48.302;14.294;2023-04-01T11:21:05;14.70;99.90
11107;DHT22;5607;48.302;14.294;2023-04-01T11:27:50;14.60;99.90
11107;DHT22;5607;48.302;14.294;2023-04-01T11:36:58;14.90;99.90
11107;DHT22;5607;48.302;14.294;2023-04-01T11:43:12;15.20;99.90
11107;DHT22;5607;48.302;14.294;2023-04-01T11:49:33;14.90;99.90
11107;DHT22;5607;48.302;14.294;2023-04-01T11:58:51;15.10;99.90
11107;DHT22;5607;48.302;14.294;2023-04-01T12:05:07;15.00;99.90
11107;DHT22;5607;48.302;14.294;2023-04-01T12:23:29;15.80;99.90
11107;DHT22;5607;48.302;14.294;2023-04-01T12:33:00;15.90;99.90
11107;DHT22;5607;48.302;14.294;2023-04-01T12:36:13;16.00;99.90
11107;DHT22;5607;48.302;14.294;2023-04-01T12:42:15;15.50;99.90
11107;DHT22;5607;48.302;14.294;2023-04-01T12:52:11;15.30;99.90
11107;DHT22;5607;48.302;14.294;2023-04-01T12:55:08;15.10;99.90
11107;DHT22;5607;48.302;14.294;2023-04-01T12:58:12;15.30;99.90
11107;DHT22;5607;48.302;14.294;2023-04-01T13:07:36;13.00;1.00
11107;DHT22;5607;48.302;14.294;2023-04-01T13:10:38;12.70;1.00
11107;DHT22;5607;48.302;14.294;2023-04-01T13:13:34;12.80;1.00
11107;DHT22;5607;48.302;14.294;2023-04-01T13:17:36;13.10;1.00
11107;DHT22;5607;48.302;14.294;2023-04-01T13:23:32;13.80;99.90
11107;DHT22;5607;48.302;14.294;2023-04-01T13:32:29;13.70;99.90
11107;DHT22;5607;48.302;14.294;2023-04-01T13:35:46;13.80;99.90
11107;DHT22;5607;48.302;14.294;2023-04-01T13:39:02;14.00;99.90
11107;DHT22;5607;48.302;14.294;2023-04-01T13:45:04;15.90;99.90
11107;DHT22;5607;48.302;14.294;2023-04-01T13:51:39;15.90;99.90
11107;DHT22;5607;48.302;14.294;2023-04-01T13:54:49;15.80;99.90
11107;DHT22;5607;48.302;14.294;2023-04-01T13:57:52;15.60;99.90
11107;DHT22;5607;48.302;14.294;2023-04-01T14:17:06;14.60;99.90
11107;DHT22;5607;48.302;14.294;2023-04-01T14:45:20;13.00;23.20
11107;DHT22;5607;48.302;14.294;2023-04-01T14:48:34;13.40;1.00
11107;DHT22;5607;48.302;14.294;2023-04-01T14:51:28;12.60;1.00
11107;DHT22;5607;48.302;14.294;2023-04-01T14:54:30;12.40;7.20
11107;DHT22;5607;48.302;14.294;2023-04-01T14:57:26;12.50;1.00
11107;DHT22;5607;48.302;14.294;2023-04-01T15:00:16;12.40;1.00
11107;DHT22;5607;48.302;14.294;2023-04-01T15:09:32;11.50;39.60
11107;DHT22;5607;48.302;14.294;2023-04-01T15:16:11;11.80;20.00
11107;DHT22;5607;48.302;14.294;2023-04-01T15:22:25;11.80;46.20
11107;DHT22;5607;48.302;14.294;2023-04-01T15:31:41;11.40;92.20
11107;DHT22;5607;48.302;14.294;2023-04-01T15:34:48;11.30;99.90
11107;DHT22;5607;48.302;14.294;2023-04-01T15:37:38;11.00;1.70
11107;DHT22;5607;48.302;14.294;2023-04-01T15:47:40;11.80;1.00
11107;DHT22;5607;48.302;14.294;2023-04-01T16:06:32;11.60;1.00
11107;DHT22;5607;48.302;14.294;2023-04-01T16:09:34;11.40;1.00
11107;DHT22;5607;48.302;14.294;2023-04-01T16:22:19;11.20;1.00
11107;DHT22;5607;48.302;14.294;2023-04-01T16:32:00;11.10;1.00
11107;DHT22;5607;48.302;14.294;2023-04-01T16:38:18;11.30;1.00
11107;DHT22;5607;48.302;14.294;2023-04-01T16:41:25;11.20;1.00
11107;DHT22;5607;48.302;14.294;2023-04-01T16:47:12;11.10;1.00
11107;DHT22;5607;48.302;14.294;2023-04-01T16:50:19;11.00;1.00
11107;DHT22;5607;48.302;14.294;2023-04-01T16:53:08;11.10;1.00
11107;DHT22;5607;48.302;14.294;2023-04-01T17:01:52;11.10;1.00
11107;DHT22;5607;48.302;14.294;2023-04-01T17:05:00;11.00;1.00
11107;DHT22;5607;48.302;14.294;2023-04-01T17:08:06;10.90;1.00
11107;DHT22;5607;48.302;14.294;2023-04-01T17:11:06;10.90;1.00
11107;DHT22;5607;48.302;14.294;2023-04-01T17:23:20;10.80;1.00
11107;DHT22;5607;48.302;14.294;2023-04-01T17:26:37;10.90;1.00
11107;DHT22;5607;48.302;14.294;2023-04-01T17:32:53;10.90;1.00
11107;DHT22;5607;48.302;14.294;2023-04-01T17:42:27;11.10;1.00
11107;DHT22;5607;48.302;14.294;2023-04-01T17:45:30;10.80;1.00
11107;DHT22;5607;48.302;14.294;2023-04-01T17:48:39;10.80;1.00
11107;DHT22;5607;48.302;14.294;2023-04-01T17:57:46;10.80;1.00
11107;DHT22;5607;48.302;14.294;2023-04-01T18:19:22;10.90;1.00
11107;DHT22;5607;48.302;14.294;2023-04-01T18:22:17;10.90;1.00
11107;DHT22;5607;48.302;14.294;2023-04-01T18:31:20;10.90;1.00
11107;DHT22;5607;48.302;14.294;2023-04-01T18:34:16;10.80;1.00
11107;DHT22;5607;48.302;14.294;2023-04-01T18:37:25;10.80;1.00
11107;DHT22;5607;48.302;14.294;2023-04-01T18:55:35;10.90;1.00
11107;DHT22;5607;48.302;14.294;2023-04-01T19:01:26;11.00;1.00
11107;DHT22;5607;48.302;14.294;2023-04-01T19:04:36;10.80;1.00
11107;DHT22;5607;48.302;14.294;2023-04-01T19:17:08;11.00;1.00
11107;DHT22;5607;48.302;14.294;2023-04-01T19:29:42;10.90;1.00
11107;DHT22;5607;48.302;14.294;2023-04-01T19:32:46;10.90;1.00
11107;DHT22;5607;48.302;14.294;2023-04-01T19:36:29;10.90;1.00
11107;DHT22;5607;48.302;14.294;2023-04-01T19:39:23;10.80;1.00
11107;DHT22;5607;48.302;14.294;2023-04-01T19:42:29;10.90;1.00
11107;DHT22;5607;48.302;14.294;2023-04-01T19:45:24;10.80;1.00
11107;DHT22;5607;48.302;14.294;2023-04-01T19:51:13;11.00;1.00
11107;DHT22;5607;48.302;14.294;2023-04-01T19:57:25;10.70;1.00
11107;DHT22;5607;48.302;14.294;2023-04-01T20:15:47;10.90;1.00
11107;DHT22;5607;48.302;14.294;2023-04-01T20:21:45;10.90;1.00
11107;DHT22;5607;48.302;14.294;2023-04-01T20:24:35;11.00;1.00
11107;DHT22;5607;48.302;14.294;2023-04-01T20:27:31;10.90;1.00
11107;DHT22;5607;48.302;14.294;2023-04-01T20:36:58;10.80;1.00
11107;DHT22;5607;48.302;14.294;2023-04-01T20:53:11;11.00;1.00
11107;DHT22;5607;48.302;14.294;2023-04-01T20:56:20;10.90;1.00
11107;DHT22;5607;48.302;14.294;2023-04-01T20:59:35;10.90;1.00
11107;DHT22;5607;48.302;14.294;2023-04-01T21:08:53;10.70;1.00
11107;DHT22;5607;48.302;14.294;2023-04-01T21:12:06;10.60;1.00
11107;DHT22;5607;48.302;14.294;2023-04-01T21:21:43;10.80;1.00
11107;DHT22;5607;48.302;14.294;2023-04-01T21:24:56;10.90;1.00
11107;DHT22;5607;48.302;14.294;2023-04-01T21:28:07;11.00;1.00
11107;DHT22;5607;48.302;14.294;2023-04-01T21:31:13;11.00;1.00
11107;DHT22;5607;48.302;14.294;2023-04-01T21:37:08;10.90;1.00
11107;DHT22;5607;48.302;14.294;2023-04-01T21:49:24;10.70;1.00
11107;DHT22;5607;48.302;14.294;2023-04-01T21:58:46;10.60;1.00
11107;DHT22;5607;48.302;14.294;2023-04-01T22:05:22;10.60;1.00
11107;DHT22;5607;48.302;14.294;2023-04-01T22:26:33;10.60;3.30
11107;DHT22;5607;48.302;14.294;2023-04-01T22:29:33;10.70;19.00
11107;DHT22;5607;48.302;14.294;2023-04-01T22:32:32;10.70;19.70
11107;DHT22;5607;48.302;14.294;2023-04-01T22:35:48;10.70;3.20
11107;DHT22;5607;48.302;14.294;2023-04-01T22:54:43;10.40;1.00
11107;DHT22;5607;48.302;14.294;2023-04-01T22:57:39;10.40;1.00
11107;DHT22;5607;48.302;14.294;2023-04-01T23:00:42;10.40;1.00
11107;DHT22;5607;48.302;14.294;2023-04-01T23:03:34;10.30;1.00
11107;DHT22;5607;48.302;14.294;2023-04-01T23:06:32;10.40;1.00
11107;DHT22;5607;48.302;14.294;2023-04-01T23:09:31;10.40;1.00
11107;DHT22;5607;48.302;14.294;2023-04-01T23:12:19;10.30;1.00
11107;DHT22;5607;48.302;14.294;2023-04-01T23:15:10;10.20;1.00
11107;DHT22;5607;48.302;14.294;2023-04-01T23:18:08;10.20;1.00
11107;DHT22;5607;48.302;14.294;2023-04-01T23:21:53;10.20;1.00
11107;DHT22;5607;48.302;14.294;2023-04-01T23:24:28;10.10;1.00
11107;DHT22;5607;48.302;14.294;2023-04-01T23:31:01;9.70;70.80
11107;DHT22;5607;48.302;14.294;2023-04-01T23:33:52;9.60;64.90
11107;DHT22;5607;48.302;14.294;2023-04-01T23:36:50;9.60;73.20
11107;DHT22;5607;48.302;14.294;2023-04-01T23:39:43;9.60;72.70
11107;DHT22;5607;48.302;14.294;2023-04-01T23:42:33;9.70;72.70
11107;DHT22;5607;48.302;14.294;2023-04-01T23:45:26;9.80;78.00
11107;DHT22;5607;48.302;14.294;2023-04-01T23:48:13;9.70;69.20
11107;DHT22;5607;48.302;14.294;2023-04-01T23:51:02;9.80;82.10
11107;DHT22;5607;48.302;14.294;2023-04-01T23:53:56;9.80;67.30
11107;DHT22;5607;48.302;14.294;2023-04-01T23:56:51;9.80;99.90
11107;DHT22;5607;48.302;14.294;2023-04-01T23:59:39;9.80;88.40
